createdAt,value
2023-05-16T00:02:07.950Z,54.74
2023-05-16T00:04:56.384Z,54.64
2023-05-16T00:07:33.952Z,54.84
2023-05-16T00:10:12.272Z,54.55
2023-05-16T00:12:43.047Z,54.64
2023-05-16T00:15:16.828Z,54.81
2023-05-16T00:18:04.713Z,54.94
2023-05-16T00:20:34.104Z,54.81
2023-05-16T00:23:10.973Z,55.07
2023-05-16T00:25:54.342Z,54.98
2023-05-16T00:28:29.557Z,55.19
2023-05-16T00:31:13.683Z,54.98
2023-05-16T00:33:43.587Z,54.73
2023-05-16T00:36:11.729Z,55.73
2023-05-16T00:38:41.280Z,54.86
2023-05-16T00:41:09.266Z,54.98
2023-05-16T00:43:40.393Z,55.07
2023-05-16T00:46:11.821Z,55.37
2023-05-16T00:48:43.500Z,55.04
2023-05-16T00:51:15.516Z,55.39
2023-05-16T00:53:54.606Z,55.29
2023-05-16T00:56:36.928Z,55.62
2023-05-16T00:59:17.364Z,55.57
2023-05-16T01:01:52.776Z,55.48
2023-05-16T01:04:51.843Z,55.58
2023-05-16T01:08:28.553Z,55.36
2023-05-16T01:11:05.416Z,55.68
2023-05-16T01:13:42.750Z,55.69
2023-05-16T01:16:20.168Z,55.59
2023-05-16T01:18:54.025Z,55.87
2023-05-16T01:21:32.881Z,56.11
2023-05-16T01:24:49.861Z,56.03
2023-05-16T01:27:26.439Z,55.87
2023-05-16T01:30:05.899Z,55.93
2023-05-16T01:32:37.548Z,56.23
2023-05-16T01:35:06.127Z,56.33
2023-05-16T01:37:37.468Z,56.09
2023-05-16T01:40:09.737Z,56.41
2023-05-16T01:42:41.084Z,56.26
2023-05-16T01:45:12.488Z,55.83
2023-05-16T01:47:41.471Z,55.66
2023-05-16T01:50:11.142Z,55.84
2023-05-16T01:52:42.200Z,55.92
2023-05-16T01:55:11.691Z,55.77
2023-05-16T01:57:40.893Z,55.75
2023-05-16T02:00:09.903Z,55.67
2023-05-16T02:02:37.795Z,55.56
2023-05-16T02:05:07.477Z,55.82
2023-05-16T02:07:35.544Z,56.04
2023-05-16T02:10:03.400Z,55.58
2023-05-16T02:12:31.374Z,55.64
2023-05-16T02:15:00.674Z,55.82
2023-05-16T02:17:29.233Z,55.56
2023-05-16T02:19:57.737Z,55.79
2023-05-16T02:22:26.317Z,55.57
2023-05-16T02:24:54.188Z,55.45
2023-05-16T02:27:22.058Z,55.25
2023-05-16T02:29:50.021Z,55.68
2023-05-16T02:32:19.308Z,55.74
2023-05-16T02:34:47.317Z,55.83
2023-05-16T02:37:15.323Z,55.60
2023-05-16T02:39:43.043Z,55.61
2023-05-16T02:42:10.703Z,55.66
2023-05-16T02:44:38.464Z,55.80
2023-05-16T02:47:06.166Z,54.97
2023-05-16T02:49:36.283Z,55.52
2023-05-16T02:52:04.146Z,55.32
2023-05-16T02:54:31.920Z,54.82
2023-05-16T02:56:59.639Z,54.86
2023-05-16T02:59:27.737Z,55.11
2023-05-16T03:01:55.452Z,55.83
2023-05-16T03:04:23.876Z,55.22
2023-05-16T03:06:52.899Z,55.29
2023-05-16T03:09:20.682Z,55.11
2023-05-16T03:11:48.432Z,55.15
2023-05-16T03:14:16.396Z,55.18
2023-05-16T03:16:49.231Z,55.46
2023-05-16T03:19:17.205Z,55.28
2023-05-16T03:21:45.132Z,55.48
2023-05-16T03:24:14.279Z,55.20
2023-05-16T03:26:42.180Z,55.49
2023-05-16T03:29:10.008Z,55.10
2023-05-16T03:31:37.766Z,55.54
2023-05-16T03:34:05.738Z,55.27
2023-05-16T03:36:33.430Z,54.89
2023-05-16T03:39:01.188Z,55.43
2023-05-16T03:41:30.357Z,55.32
2023-05-16T03:43:58.045Z,55.49
2023-05-16T03:46:25.993Z,55.00
2023-05-16T03:48:53.794Z,55.44
2023-05-16T03:51:21.626Z,55.15
2023-05-16T03:53:49.379Z,54.92
2023-05-16T04:00:07.925Z,55.35
2023-05-16T04:10:58.578Z,55.02
2023-05-16T04:14:20.904Z,54.70
2023-05-16T04:24:44.010Z,54.54
2023-05-16T04:31:05.111Z,54.71
2023-05-16T05:13:29.177Z,53.24
2023-05-16T05:30:54.067Z,52.40
2023-05-16T05:33:22.024Z,52.10
2023-05-16T05:36:14.334Z,51.72
2023-05-16T05:38:43.536Z,51.96
2023-05-16T05:41:11.943Z,51.69
2023-05-16T05:43:39.665Z,51.81
2023-05-16T05:46:08.383Z,51.25
2023-05-16T05:48:36.144Z,51.75
2023-05-16T05:51:06.258Z,50.69
2023-05-16T05:53:33.957Z,50.91
2023-05-16T05:56:03.115Z,50.83
2023-05-16T05:58:45.355Z,50.88
2023-05-16T06:01:13.109Z,50.13
2023-05-16T06:03:41.076Z,49.44
2023-05-16T06:06:10.602Z,49.58
2023-05-16T06:08:38.360Z,49.33
2023-05-16T06:11:07.558Z,49.58
2023-05-16T06:13:35.478Z,48.29
2023-05-16T06:16:03.278Z,47.32
2023-05-16T06:18:31.099Z,44.94
2023-05-16T06:20:59.342Z,44.91
2023-05-16T06:23:27.263Z,43.24
2023-05-16T06:25:55.071Z,41.93
2023-05-16T06:28:25.052Z,42.06
2023-05-16T06:30:52.863Z,41.66
2023-05-16T06:33:20.680Z,40.04
2023-05-16T06:35:49.009Z,39.98
2023-05-16T06:38:16.824Z,38.97
2023-05-16T06:40:44.533Z,37.73
2023-05-16T06:43:13.357Z,37.50
2023-05-16T06:45:42.696Z,37.71
2023-05-16T06:48:11.113Z,36.64
2023-05-16T06:50:38.998Z,35.80
2023-05-16T06:53:07.412Z,35.16
2023-05-16T06:55:35.582Z,35.46
2023-05-16T06:58:03.468Z,34.79
2023-05-16T07:00:31.366Z,34.44
2023-05-16T07:03:00.744Z,33.83
2023-05-16T07:05:28.720Z,33.63
2023-05-16T07:07:56.762Z,33.49
2023-05-16T07:10:24.886Z,33.83
2023-05-16T07:12:52.676Z,33.36
2023-05-16T07:15:20.598Z,32.75
2023-05-16T07:17:48.391Z,32.25
2023-05-16T07:20:20.428Z,30.68
2023-05-16T07:22:57.374Z,30.09
2023-05-16T07:25:25.869Z,28.92
2023-05-16T07:27:54.248Z,29.54
2023-05-16T07:30:22.047Z,28.58
2023-05-16T07:32:52.592Z,28.95
2023-05-16T07:35:22.225Z,29.24
2023-05-16T07:37:49.997Z,29.57
2023-05-16T07:40:25.735Z,30.75
2023-05-16T07:42:53.679Z,31.10
2023-05-16T07:45:39.837Z,31.45
2023-05-16T07:48:08.794Z,31.96
2023-05-16T07:50:38.265Z,32.34
2023-05-16T07:53:06.254Z,32.55
2023-05-16T07:55:34.280Z,33.08
2023-05-16T07:58:02.040Z,33.47
2023-05-16T08:00:30.144Z,33.97
2023-05-16T08:03:01.262Z,33.84
2023-05-16T08:05:29.459Z,33.51
2023-05-16T08:07:58.956Z,33.55
2023-05-16T08:10:27.022Z,34.39
2023-05-16T08:12:55.024Z,34.18
2023-05-16T08:15:23.242Z,33.04
2023-05-16T08:17:51.232Z,31.52
2023-05-16T08:20:19.294Z,29.49
2023-05-16T08:22:47.085Z,28.36
2023-05-16T08:25:16.354Z,27.56
2023-05-16T08:27:45.666Z,25.97
2023-05-16T08:30:14.731Z,24.99
2023-05-16T08:33:21.612Z,24.46
2023-05-16T08:35:50.053Z,21.78
2023-05-16T08:38:17.963Z,22.14
2023-05-16T08:40:47.183Z,20.64
2023-05-16T08:43:37.160Z,21.41
2023-05-16T08:46:05.193Z,21.59
2023-05-16T08:48:35.120Z,19.73
2023-05-16T08:51:03.231Z,19.67
2023-05-16T08:53:33.818Z,19.41
2023-05-16T08:56:03.473Z,19.13
2023-05-16T08:58:31.221Z,18.51
2023-05-16T09:00:59.273Z,19.40
2023-05-16T09:03:28.953Z,19.67
2023-05-16T09:05:57.823Z,21.20
2023-05-16T09:08:26.232Z,21.38
2023-05-16T09:10:54.717Z,22.49
2023-05-16T09:13:25.051Z,22.93
2023-05-16T09:16:11.311Z,23.25
2023-05-16T09:18:39.312Z,24.06
2023-05-16T09:21:07.644Z,24.17
2023-05-16T09:23:37.191Z,24.46
2023-05-16T09:26:08.004Z,23.95
2023-05-16T09:28:59.889Z,22.42
2023-05-16T09:31:31.749Z,22.82
2023-05-16T09:33:59.819Z,21.54
2023-05-16T09:36:27.535Z,21.45
2023-05-16T09:38:55.684Z,21.29
2023-05-16T09:41:23.662Z,20.67
2023-05-16T09:43:52.840Z,19.26
2023-05-16T09:46:20.741Z,19.79
2023-05-16T09:48:49.054Z,18.07
2023-05-16T09:51:16.929Z,17.86
2023-05-16T09:53:52.732Z,18.47
2023-05-16T09:56:21.557Z,17.91
2023-05-16T09:58:49.472Z,17.65
2023-05-16T10:01:18.921Z,16.95
2023-05-16T10:03:53.974Z,16.04
2023-05-16T10:06:22.904Z,15.76
2023-05-16T10:08:51.687Z,16.39
2023-05-16T10:11:19.568Z,16.62
2023-05-16T10:13:50.449Z,17.12
2023-05-16T10:16:19.655Z,16.21
2023-05-16T10:18:47.670Z,16.62
2023-05-16T10:21:16.572Z,15.67
2023-05-16T10:23:51.671Z,14.78
2023-05-16T10:26:19.544Z,14.53
2023-05-16T10:28:47.501Z,13.88
2023-05-16T10:31:15.701Z,14.22
2023-05-16T10:33:46.052Z,14.71
2023-05-16T10:36:15.957Z,15.41
2023-05-16T10:38:43.943Z,16.05
2023-05-16T10:41:12.966Z,16.81
2023-05-16T10:43:43.067Z,17.20
2023-05-16T10:46:12.424Z,17.74
2023-05-16T10:48:41.331Z,18.45
2023-05-16T10:51:41.439Z,18.29
2023-05-16T10:54:15.353Z,18.72
2023-05-16T10:56:43.685Z,19.59
2023-05-16T10:59:28.532Z,18.64
2023-05-16T11:01:56.795Z,18.19
2023-05-16T11:04:35.117Z,18.66
2023-05-16T11:07:04.363Z,19.63
2023-05-16T11:09:32.152Z,20.21
2023-05-16T11:12:01.256Z,20.33
2023-05-16T11:14:32.046Z,20.49
2023-05-16T11:17:03.590Z,20.96
2023-05-16T11:19:35.804Z,21.64
2023-05-16T11:22:09.458Z,21.86
2023-05-16T11:24:38.150Z,22.23
2023-05-16T11:29:47.552Z,21.38
2023-05-16T11:32:15.947Z,21.97
2023-05-16T11:34:46.304Z,22.29
2023-05-16T11:37:16.330Z,22.21
2023-05-16T11:39:44.546Z,22.18
2023-05-16T11:42:13.357Z,22.67
2023-05-16T11:44:41.998Z,22.79
2023-05-16T11:47:10.125Z,22.92
2023-05-16T11:49:38.337Z,22.80
2023-05-16T11:52:06.681Z,23.23
2023-05-16T11:54:36.559Z,23.51
2023-05-16T11:57:04.635Z,23.29
2023-05-16T11:59:32.783Z,23.10
2023-05-16T12:02:05.317Z,22.93
2023-05-16T12:04:33.683Z,23.02
2023-05-16T12:07:02.643Z,23.26
2023-05-16T12:09:31.186Z,23.79
2023-05-16T12:12:00.884Z,24.20
2023-05-16T12:14:28.940Z,24.33
2023-05-16T12:16:57.147Z,24.32
2023-05-16T12:19:25.549Z,25.03
2023-05-16T12:21:54.628Z,25.42
2023-05-16T12:24:23.116Z,26.46
2023-05-16T12:26:51.111Z,26.37
2023-05-16T12:29:20.614Z,26.71
2023-05-16T12:31:51.379Z,26.72
2023-05-16T12:34:21.522Z,26.61
2023-05-16T12:36:53.062Z,25.34
2023-05-16T12:39:21.190Z,24.99
2023-05-16T12:41:49.278Z,25.29
2023-05-16T12:44:19.892Z,25.55
2023-05-16T12:46:52.032Z,25.77
2023-05-16T12:49:21.942Z,25.40
2023-05-16T12:51:51.213Z,24.79
2023-05-16T12:54:19.401Z,25.25
2023-05-16T12:56:47.275Z,25.41
2023-05-16T12:59:15.205Z,24.88
2023-05-16T13:01:44.465Z,25.14
2023-05-16T13:04:16.916Z,25.02
2023-05-16T13:06:58.452Z,24.89
2023-05-16T13:09:32.095Z,25.11
2023-05-16T13:12:00.865Z,25.27
2023-05-16T13:14:28.829Z,24.85
2023-05-16T13:16:56.588Z,24.82
2023-05-16T13:19:26.258Z,25.17
2023-05-16T13:21:54.195Z,25.19
2023-05-16T13:24:22.008Z,25.64
2023-05-16T13:26:49.884Z,25.73
2023-05-16T13:29:17.849Z,26.56
2023-05-16T13:31:45.885Z,26.30
2023-05-16T13:34:13.742Z,26.85
2023-05-16T13:36:53.655Z,26.87
2023-05-16T13:39:23.053Z,26.66
2023-05-16T13:41:51.533Z,26.64
2023-05-16T13:44:19.561Z,26.58
2023-05-16T13:46:47.590Z,25.88
2023-05-16T13:49:15.956Z,25.34
2023-05-16T13:51:45.606Z,25.50
2023-05-16T13:54:13.731Z,24.99
2023-05-16T13:56:42.127Z,24.41
2023-05-16T13:59:12.340Z,22.27
2023-05-16T14:01:43.421Z,22.75
2023-05-16T14:04:11.986Z,21.98
2023-05-16T14:06:40.142Z,22.58
2023-05-16T14:09:09.638Z,23.00
2023-05-16T14:11:37.532Z,23.10
2023-05-16T14:14:06.306Z,23.11
2023-05-16T14:16:34.455Z,23.29
2023-05-16T14:19:03.096Z,23.46
2023-05-16T14:21:31.212Z,23.37
2023-05-16T14:23:59.348Z,23.47
2023-05-16T14:26:31.304Z,23.42
2023-05-16T14:29:01.637Z,23.67
2023-05-16T14:31:36.578Z,23.52
2023-05-16T14:34:04.777Z,23.18
2023-05-16T14:36:33.145Z,23.77
2023-05-16T14:39:04.275Z,23.76
2023-05-16T14:41:33.626Z,23.53
2023-05-16T14:44:01.887Z,23.44
2023-05-16T14:46:29.870Z,23.83
2023-05-16T14:48:57.943Z,24.36
2023-05-16T14:51:25.928Z,24.54
2023-05-16T14:53:53.954Z,24.91
2023-05-16T14:56:22.748Z,25.06
2023-05-16T14:58:52.004Z,25.76
2023-05-16T15:01:20.178Z,25.62
2023-05-16T15:03:55.468Z,25.76
2023-05-16T15:06:24.598Z,26.06
2023-05-16T15:08:52.675Z,26.44
2023-05-16T15:11:21.788Z,26.90
2023-05-16T15:13:51.101Z,26.73
2023-05-16T15:16:19.107Z,27.06
2023-05-16T15:18:47.044Z,26.83
2023-05-16T15:21:14.918Z,27.09
2023-05-16T15:23:43.345Z,27.10
2023-05-16T15:26:11.314Z,26.99
2023-05-16T15:28:39.184Z,27.37
2023-05-16T15:31:08.532Z,27.60
2023-05-16T15:33:36.327Z,27.56
2023-05-16T15:36:04.227Z,28.06
2023-05-16T15:38:32.128Z,27.97
2023-05-16T15:41:15.901Z,28.61
2023-05-16T15:43:47.771Z,28.83
2023-05-16T15:46:16.979Z,28.87
2023-05-16T15:48:45.017Z,29.24
2023-05-16T15:51:13.141Z,30.01
2023-05-16T15:53:41.223Z,30.17
2023-05-16T15:56:09.502Z,29.61
2023-05-16T15:58:37.353Z,29.73
2023-05-16T16:01:05.406Z,29.59
2023-05-16T16:03:34.701Z,29.88
2023-05-16T16:06:02.599Z,29.83
2023-05-16T16:08:30.403Z,30.08
2023-05-16T16:10:58.594Z,30.64
2023-05-16T16:13:26.587Z,30.43
2023-05-16T16:15:54.606Z,30.17
2023-05-16T16:18:22.473Z,30.46
2023-05-16T16:20:53.001Z,30.32
2023-05-16T16:23:21.744Z,30.64
2023-05-16T16:25:50.326Z,30.50
2023-05-16T16:28:18.827Z,31.39
2023-05-16T16:30:50.289Z,30.89
2023-05-16T16:33:18.389Z,31.33
2023-05-16T16:35:46.735Z,31.52
2023-05-16T16:38:16.574Z,31.22
2023-05-16T16:40:44.979Z,31.44
2023-05-16T16:43:13.059Z,31.22
2023-05-16T16:45:41.273Z,31.31
2023-05-16T16:48:10.867Z,31.53
2023-05-16T16:50:39.238Z,31.70
2023-05-16T16:53:07.773Z,31.90
2023-05-16T16:55:45.067Z,31.94
2023-05-16T16:58:13.075Z,31.87
2023-05-16T17:01:30.343Z,32.15
2023-05-16T17:04:06.362Z,31.76
2023-05-16T17:06:36.161Z,31.82
2023-05-16T17:09:07.528Z,32.06
2023-05-16T17:11:40.982Z,32.11
2023-05-16T17:14:10.932Z,32.10
2023-05-16T17:16:41.116Z,31.89
2023-05-16T17:19:24.767Z,32.54
2023-05-16T17:22:10.679Z,32.64
2023-05-16T17:24:42.441Z,32.37
2023-05-16T17:27:47.098Z,33.08
2023-05-16T17:32:57.737Z,33.19
2023-05-16T17:35:25.951Z,33.72
2023-05-16T17:37:55.362Z,34.28
2023-05-16T17:40:23.547Z,35.08
2023-05-16T17:42:52.893Z,35.17
2023-05-16T17:45:39.310Z,36.00
2023-05-16T17:48:08.018Z,35.56
2023-05-16T17:50:37.378Z,34.99
2023-05-16T17:53:13.082Z,34.76
2023-05-16T17:55:41.481Z,35.32
2023-05-16T17:58:10.905Z,35.20
2023-05-16T18:00:56.620Z,35.59
2023-05-16T18:03:25.006Z,35.55
2023-05-16T18:05:53.086Z,35.59
2023-05-16T18:08:56.138Z,35.63
2023-05-16T18:12:03.521Z,36.01
2023-05-16T18:14:55.506Z,36.03
2023-05-16T18:17:23.477Z,35.83
2023-05-16T18:19:55.255Z,36.24
2023-05-16T18:22:44.216Z,36.44
2023-05-16T18:25:12.462Z,36.10
2023-05-16T18:27:40.656Z,36.77
2023-05-16T18:30:13.306Z,36.73
2023-05-16T18:32:43.393Z,37.23
2023-05-16T18:35:13.141Z,37.75
2023-05-16T18:37:44.078Z,37.23
2023-05-16T18:40:13.920Z,37.46
2023-05-16T18:42:42.925Z,37.68
2023-05-16T18:45:13.040Z,37.89
2023-05-16T18:47:41.416Z,37.71
2023-05-16T18:50:15.711Z,37.58
2023-05-16T18:53:05.108Z,38.08
2023-05-16T18:55:33.838Z,37.61
2023-05-16T18:58:02.559Z,37.61
2023-05-16T19:00:32.064Z,37.99
2023-05-16T19:03:02.590Z,37.81
2023-05-16T19:05:34.211Z,37.97
2023-05-16T19:08:03.520Z,37.94
2023-05-16T19:10:32.141Z,37.92
2023-05-16T19:13:07.184Z,37.86
2023-05-16T19:15:36.785Z,37.63
2023-05-16T19:18:05.037Z,37.84
2023-05-16T19:20:33.966Z,38.25
2023-05-16T19:23:02.482Z,38.16
2023-05-16T19:25:30.378Z,38.25
2023-05-16T19:27:58.517Z,38.36
2023-05-16T19:30:26.483Z,38.37
2023-05-16T19:32:56.078Z,38.40
2023-05-16T19:35:23.957Z,38.38
2023-05-16T19:37:51.853Z,38.33
2023-05-16T19:40:20.071Z,38.77
2023-05-16T19:46:36.158Z,38.68
2023-05-16T19:49:05.560Z,38.94
2023-05-16T19:51:41.216Z,38.81
2023-05-16T19:54:10.710Z,38.99
2023-05-16T19:56:38.576Z,38.94
2023-05-16T19:59:06.541Z,38.98
2023-05-16T20:01:34.649Z,39.40
2023-05-16T20:04:02.636Z,39.33
2023-05-16T20:06:34.478Z,39.33
2023-05-16T20:09:20.675Z,39.34
2023-05-16T20:11:50.811Z,39.38
2023-05-16T20:14:20.425Z,39.73
2023-05-16T20:16:48.464Z,39.59
2023-05-16T20:19:18.937Z,39.54
2023-05-16T20:21:48.578Z,40.00
2023-05-16T20:24:20.661Z,40.08
2023-05-16T20:26:48.573Z,40.19
2023-05-16T20:29:16.648Z,40.10
2023-05-16T20:31:47.664Z,40.33
2023-05-16T20:34:15.787Z,40.27
2023-05-16T20:36:45.967Z,40.21
2023-05-16T20:39:15.489Z,40.40
2023-05-16T20:41:43.562Z,40.71
2023-05-16T20:44:11.586Z,41.21
2023-05-16T20:47:05.354Z,41.21
2023-05-16T20:49:33.247Z,41.37
2023-05-16T20:52:04.803Z,41.90
2023-05-16T20:54:45.366Z,42.07
2023-05-16T20:57:13.691Z,42.02
2023-05-16T20:59:48.816Z,41.93
2023-05-16T21:02:19.971Z,41.83
2023-05-16T21:04:57.442Z,42.30
2023-05-16T21:07:27.813Z,42.41
2023-05-16T21:10:00.598Z,42.63
2023-05-16T21:12:40.794Z,42.87
2023-05-16T21:15:10.297Z,42.72
2023-05-16T21:17:39.502Z,42.49
2023-05-16T21:20:09.555Z,42.77
2023-05-16T21:22:39.586Z,42.76
2023-05-16T21:25:12.482Z,42.81
2023-05-16T21:27:40.356Z,44.20
2023-05-16T21:30:09.431Z,43.70
2023-05-16T21:32:37.307Z,43.59
2023-05-16T21:35:06.829Z,43.34
2023-05-16T21:37:34.798Z,43.06
2023-05-16T21:40:02.732Z,43.05
2023-05-16T21:42:33.126Z,42.98
2023-05-16T21:45:02.262Z,43.00
2023-05-16T21:47:30.195Z,43.01
2023-05-16T21:49:58.198Z,43.45
2023-05-16T21:52:26.084Z,43.15
2023-05-16T21:54:54.549Z,43.45
2023-05-16T21:57:22.321Z,43.58
2023-05-16T21:59:51.936Z,44.14
2023-05-16T22:02:23.746Z,44.17
2023-05-16T22:04:53.242Z,44.65
2023-05-16T22:07:21.179Z,44.54
2023-05-16T22:09:53.556Z,45.10
2023-05-16T22:12:23.888Z,45.17
2023-05-16T22:14:53.336Z,45.43
2023-05-16T22:17:21.160Z,44.99
2023-05-16T22:19:50.399Z,45.36
2023-05-16T22:22:18.225Z,45.62
2023-05-16T22:24:48.424Z,46.02
2023-05-16T22:27:16.412Z,46.42
2023-05-16T22:29:44.392Z,46.56
2023-05-16T22:32:14.920Z,46.60
2023-05-16T22:34:42.927Z,46.93
2023-05-16T22:37:10.904Z,46.84
2023-05-16T22:39:38.660Z,46.69
2023-05-16T22:42:07.274Z,46.84
2023-05-16T22:44:35.381Z,47.17
2023-05-16T22:47:03.571Z,47.29
2023-05-16T22:49:32.943Z,47.32
2023-05-16T22:52:00.754Z,47.49
2023-05-16T22:54:30.217Z,47.39
2023-05-16T22:56:58.396Z,47.85
2023-05-16T22:59:26.338Z,47.38
2023-05-16T23:01:54.146Z,48.01
2023-05-16T23:04:23.688Z,47.69
2023-05-16T23:06:52.936Z,47.63
2023-05-16T23:09:21.303Z,48.02
2023-05-16T23:11:49.249Z,48.27
2023-05-16T23:14:17.414Z,48.28
2023-05-16T23:16:45.225Z,47.97
2023-05-16T23:19:13.194Z,47.94
2023-05-16T23:21:41.126Z,48.40
2023-05-16T23:24:10.841Z,48.38
2023-05-16T23:26:38.725Z,48.44
2023-05-16T23:29:07.041Z,48.90
2023-05-16T23:31:34.916Z,48.68
2023-05-16T23:34:05.885Z,48.60
2023-05-16T23:36:33.782Z,49.13
2023-05-16T23:39:01.687Z,49.21
2023-05-16T23:44:43.433Z,49.27
2023-05-16T23:58:28.733Z,49.64
